Time;durP1;ratioP1;P1;durP2;ratioP2;P2;SDS_P1;SDS_P2;PMS_P1;PMS_P2;Temp;Humidity;BMP_temperature;BMP_pressure;BME280_temperature;BME280_humidity;BME280_pressure;Samples;Min_cycle;Max_cycle;Signal;HPM_P1;HPM_P2
2024/01/08 00:00:58;;;;;;;4.83;2.27;;;;;;;-3.34;100.00;150521.50;4951952;28;20565;-76
2024/01/08 00:03:25;;;;;;;4.00;1.70;;;;;;;-3.33;100.00;150524.03;4968079;28;20491;-76
2024/01/08 00:05:51;;;;;;;4.50;3.00;;;;;;;-3.30;100.00;150533.00;4969764;28;20449;-76
2024/01/08 00:08:18;;;;;;;5.40;3.50;;;;;;;-3.30;100.00;150533.00;4970591;28;20531;-76
2024/01/08 00:10:46;;;;;;;2.60;2.10;;;;;;;-3.29;100.00;150534.31;4960600;28;20973;-76
2024/01/08 00:13:12;;;;;;;3.57;2.43;;;;;;;-3.29;100.00;150534.31;4960534;28;20461;-77
2024/01/08 00:15:39;;;;;;;3.43;1.93;;;;;;;-3.36;100.00;150517.66;4969467;28;20579;-76
2024/01/08 00:18:05;;;;;;;3.87;2.07;;;;;;;-3.35;100.00;150518.94;4967448;28;20437;-76
2024/01/08 00:20:32;;;;;;;2.83;1.70;;;;;;;-3.34;100.00;150521.50;4967919;28;20521;-77
2024/01/08 00:22:59;;;;;;;3.83;2.50;;;;;;;-3.35;100.00;150518.94;4969031;28;20808;-77
2024/01/08 00:25:25;;;;;;;2.30;1.97;;;;;;;-3.34;100.00;150522.81;4965268;28;20473;-77
2024/01/08 00:27:54;;;;;;;2.80;1.53;;;;;;;-3.35;100.00;150518.94;4969399;28;20459;-77
2024/01/08 00:30:20;;;;;;;3.33;2.23;;;;;;;-3.35;100.00;150520.22;4968614;28;20478;-78
2024/01/08 00:32:47;;;;;;;2.50;2.13;;;;;;;-3.33;100.00;150525.31;4968525;28;20457;-77
2024/01/08 00:35:14;;;;;;;3.53;2.20;;;;;;;-3.28;100.00;150536.84;4967826;28;20466;-77
2024/01/08 00:37:41;;;;;;;2.73;1.93;;;;;;;-3.24;100.00;150548.38;4969254;28;20502;-75
2024/01/08 00:40:08;;;;;;;2.53;1.80;;;;;;;-3.28;100.00;150536.84;4967238;28;20496;-76
2024/01/08 00:42:35;;;;;;;2.83;1.63;;;;;;;-3.31;100.00;150529.19;4967138;28;20980;-76
2024/01/08 00:45:03;;;;;;;1.90;1.67;;;;;;;-3.32;100.00;150526.63;4970742;28;20434;-76
2024/01/08 00:47:30;;;;;;;3.10;1.73;;;;;;;-3.29;100.00;150534.31;4956274;28;20442;-76
2024/01/08 00:49:56;;;;;;;2.83;1.93;;;;;;;-3.33;100.00;150524.03;4950960;28;20440;-77
2024/01/08 00:52:23;;;;;;;2.20;2.00;;;;;;;-3.34;100.00;150522.81;4966647;28;20454;-76
2024/01/08 00:54:49;;;;;;;2.90;1.20;;;;;;;-3.30;100.00;150531.72;4970348;28;20862;-76
2024/01/08 00:57:16;;;;;;;3.60;2.30;;;;;;;-3.33;100.00;150524.03;4970143;28;20449;-76
2024/01/08 00:59:43;;;;;;;3.93;2.63;;;;;;;-3.27;100.00;150539.41;4966360;28;20445;-77
2024/01/08 01:02:11;;;;;;;2.87;2.53;;;;;;;-3.26;100.00;150541.97;4968076;28;20446;-76
2024/01/08 01:04:37;;;;;;;3.77;2.93;;;;;;;-3.26;100.00;150541.97;4968704;28;20452;-78
2024/01/08 01:07:04;;;;;;;3.60;1.87;;;;;;;-3.28;100.00;150536.84;4949361;28;20497;-77
2024/01/08 01:09:30;;;;;;;3.80;2.60;;;;;;;-3.29;100.00;150535.59;4970704;28;20462;-76
2024/01/08 01:11:57;;;;;;;4.40;2.57;;;;;;;-3.32;100.00;150526.63;4968749;28;20457;-77
2024/01/08 01:14:23;;;;;;;3.67;1.23;;;;;;;-3.31;100.00;150529.19;4950500;28;20464;-77
2024/01/08 01:16:50;;;;;;;4.07;1.90;;;;;;;-3.31;100.00;150529.19;4968637;28;20477;-77
2024/01/08 01:19:18;;;;;;;2.77;1.63;;;;;;;-3.36;100.00;150516.41;4952496;28;21004;-77
2024/01/08 01:21:44;;;;;;;3.73;2.77;;;;;;;-3.34;100.00;150522.81;4970997;28;20442;-77
2024/01/08 01:24:11;;;;;;;2.87;1.70;;;;;;;-3.33;100.00;150524.03;4954380;28;20512;-77
2024/01/08 01:26:37;;;;;;;3.50;2.00;;;;;;;-3.34;100.00;150521.50;4952679;28;20459;-77
2024/01/08 01:29:04;;;;;;;1.90;1.67;;;;;;;-3.32;100.00;150527.91;4971985;28;20451;-77
2024/01/08 01:31:31;;;;;;;3.40;2.37;;;;;;;-3.29;100.00;150534.31;4953824;28;20458;-77
2024/01/08 01:33:57;;;;;;;2.03;1.90;;;;;;;-3.32;100.00;150527.91;4954328;28;20455;-77
2024/01/08 01:36:25;;;;;;;3.40;2.70;;;;;;;-3.29;100.00;150534.31;4968223;28;20453;-77
2024/01/08 01:38:52;;;;;;;2.53;1.90;;;;;;;-3.31;100.00;150529.19;4969254;28;20452;-76
2024/01/08 01:41:18;;;;;;;4.27;2.83;;;;;;;-3.29;100.00;150534.31;4954167;28;20471;-76
2024/01/08 01:43:45;;;;;;;3.10;1.90;;;;;;;-3.30;100.00;150533.00;4971422;28;20540;-77
2024/01/08 01:46:18;;;;;;;3.37;2.93;;;;;;;-3.29;100.00;150535.59;4972527;28;20468;-77
2024/01/08 01:48:45;;;;;;;3.63;2.90;;;;;;;-3.22;100.00;150552.19;4951824;28;20451;-77
2024/01/08 01:51:12;;;;;;;3.03;2.00;;;;;;;-3.33;100.00;150525.31;4970411;28;20446;-77
2024/01/08 01:53:40;;;;;;;3.10;2.03;;;;;;;-3.34;100.00;150522.81;4969507;28;20440;-77
2024/01/08 01:56:08;;;;;;;3.50;2.53;;;;;;;-3.29;100.00;150534.31;4967962;28;20496;-77
2024/01/08 01:58:34;;;;;;;4.10;3.10;;;;;;;-3.26;100.00;150543.28;4971140;28;20492;-77
2024/01/08 02:01:01;;;;;;;2.50;1.93;;;;;;;-3.28;100.00;150536.84;4968383;28;20509;-77
2024/01/08 02:03:28;;;;;;;3.03;1.90;;;;;;;-3.24;100.00;150547.09;4969777;28;20454;-77
2024/01/08 02:05:55;;;;;;;5.10;2.90;;;;;;;-3.27;100.00;150539.41;4969772;28;20461;-76
2024/01/08 02:08:22;;;;;;;3.00;2.70;;;;;;;-3.25;100.00;150545.81;4966454;28;20518;-78
2024/01/08 02:10:50;;;;;;;4.23;2.27;;;;;;;-3.25;100.00;150544.50;4970793;28;20467;-77
2024/01/08 02:13:17;;;;;;;3.13;2.10;;;;;;;-3.22;100.00;150552.19;4968335;28;20471;-77
2024/01/08 02:15:43;;;;;;;4.03;2.70;;;;;;;-3.29;100.00;150534.31;4953907;28;20450;-77
2024/01/08 02:18:10;;;;;;;4.57;3.00;;;;;;;-3.24;100.00;150547.09;4969854;28;20469;-77
2024/01/08 02:20:36;;;;;;;3.37;2.07;;;;;;;-3.24;100.00;150547.09;4965926;28;20466;-77
2024/01/08 02:23:05;;;;;;;4.87;2.93;;;;;;;-3.21;100.00;150556.06;4969322;28;20488;-77
2024/01/08 02:25:31;;;;;;;7.83;3.47;;;;;;;-3.18;100.00;150563.69;4970734;28;20441;-77
2024/01/08 02:27:58;;;;;;;3.97;3.23;;;;;;;-3.20;100.00;150557.31;4970221;28;20561;-77
2024/01/08 02:30:24;;;;;;;3.07;1.93;;;;;;;-3.20;100.00;150557.31;4967746;28;20843;-77
2024/01/08 02:32:51;;;;;;;5.33;2.90;;;;;;;-3.22;100.00;150553.50;4969361;28;20432;-77
2024/01/08 02:35:17;;;;;;;2.53;2.20;;;;;;;-3.24;100.00;150547.09;4969934;28;20436;-77
2024/01/08 02:37:44;;;;;;;3.70;2.43;;;;;;;-3.23;100.00;150550.91;4951176;28;20477;-77
2024/01/08 02:40:13;;;;;;;4.33;2.70;;;;;;;-3.17;100.00;150566.28;4957734;28;20968;-77
2024/01/08 02:42:41;;;;;;;4.43;2.73;;;;;;;-3.18;100.00;150562.47;4982858;28;20485;-77
2024/01/08 02:45:08;;;;;;;3.00;2.27;;;;;;;-3.17;100.00;150566.28;4970402;28;20561;-77
2024/01/08 02:47:37;;;;;;;4.30;3.87;;;;;;;-3.18;100.00;150562.47;4969804;28;20487;-77
2024/01/08 02:50:05;;;;;;;3.90;3.10;;;;;;;-3.12;100.00;150577.78;4971227;28;20883;-77
2024/01/08 02:52:32;;;;;;;4.57;3.37;;;;;;;-3.10;100.00;150582.94;4970272;28;20535;-77
2024/01/08 02:54:59;;;;;;;5.50;3.50;;;;;;;-3.09;100.00;150586.75;4977065;28;20467;-77
2024/01/08 02:57:27;;;;;;;4.97;3.40;;;;;;;-3.09;100.00;150585.47;4970427;28;20987;-77
2024/01/08 02:59:54;;;;;;;4.93;3.70;;;;;;;-3.10;100.00;150582.94;4967414;28;20455;-77
2024/01/08 03:02:21;;;;;;;4.87;3.37;;;;;;;-3.07;100.00;150590.56;4965151;28;20473;-78
2024/01/08 03:04:47;;;;;;;5.37;3.67;;;;;;;-3.05;100.00;150595.72;4955983;28;20474;-77
2024/01/08 03:07:17;;;;;;;5.23;3.60;;;;;;;-3.05;100.00;150595.72;4973468;28;20454;-78
2024/01/08 03:09:44;;;;;;;3.87;2.40;;;;;;;-3.06;100.00;150593.16;4969825;28;20457;-77
2024/01/08 03:12:10;;;;;;;4.30;3.00;;;;;;;-3.15;100.00;150570.13;4969482;28;21057;-77
2024/01/08 03:14:38;;;;;;;2.10;1.90;;;;;;;-3.20;100.00;150557.31;4963010;28;20473;-77
2024/01/08 03:17:05;;;;;;;5.23;4.30;;;;;;;-3.13;100.00;150575.25;4966773;28;20501;-78
2024/01/08 03:19:31;;;;;;;2.73;2.07;;;;;;;-3.20;100.00;150558.59;4967558;28;21018;-78
2024/01/08 03:22:00;;;;;;;3.37;2.27;;;;;;;-3.17;100.00;150565.00;4964978;28;20700;-77
2024/01/08 03:24:27;;;;;;;3.17;2.47;;;;;;;-3.16;100.00;150568.84;4968947;28;20505;-77
2024/01/08 03:26:53;;;;;;;4.00;2.80;;;;;;;-3.15;100.00;150570.13;4968001;28;20443;-77
2024/01/08 03:29:20;;;;;;;3.63;2.73;;;;;;;-3.11;100.00;150581.66;4969444;28;20433;-77
2024/01/08 03:31:48;;;;;;;5.03;2.23;;;;;;;-3.15;100.00;150570.13;4968615;28;20431;-78
2024/01/08 03:34:15;;;;;;;2.57;1.47;;;;;;;-3.18;100.00;150562.47;4967902;28;20513;-78
2024/01/08 03:36:44;;;;;;;2.43;1.93;;;;;;;-3.20;100.00;150557.31;4968806;28;20447;-77
2024/01/08 03:39:12;;;;;;;4.13;2.57;;;;;;;-3.21;100.00;150554.78;4960912;28;20469;-77
2024/01/08 03:41:39;;;;;;;5.50;3.43;;;;;;;-3.21;100.00;150556.06;4959154;28;20575;-78
2024/01/08 03:44:06;;;;;;;3.30;2.20;;;;;;;-3.20;100.00;150557.31;4950436;29;20450;-77
2024/01/08 03:46:32;;;;;;;3.80;2.77;;;;;;;-3.22;100.00;150553.50;4951273;28;20516;-78
2024/01/08 03:49:00;;;;;;;2.07;1.87;;;;;;;-3.21;100.00;150554.78;4931563;29;20485;-78
2024/01/08 03:51:27;;;;;;;3.10;1.87;;;;;;;-3.21;100.00;150554.78;4949015;29;20502;-77
2024/01/08 03:53:54;;;;;;;3.70;2.90;;;;;;;-3.20;100.00;150557.31;4948260;28;20923;-78
2024/01/08 03:56:21;;;;;;;3.53;2.77;;;;;;;-3.20;100.00;150558.59;4940698;28;20503;-78
2024/01/08 03:58:47;;;;;;;3.20;2.20;;;;;;;-3.17;100.00;150565.00;4950625;29;21008;-77
2024/01/08 04:01:14;;;;;;;2.70;1.97;;;;;;;-3.19;100.00;150561.16;4949988;28;20443;-78
2024/01/08 04:03:41;;;;;;;4.00;2.40;;;;;;;-3.19;100.00;150559.88;4933577;29;20443;-78
2024/01/08 04:06:09;;;;;;;3.10;2.47;;;;;;;-3.19;100.00;150559.88;4930481;28;20930;-78
2024/01/08 04:08:35;;;;;;;3.77;2.57;;;;;;;-3.16;100.00;150567.56;4948659;28;21020;-78
2024/01/08 04:11:02;;;;;;;4.00;2.27;;;;;;;-3.19;100.00;150561.16;4916054;29;20450;-77
2024/01/08 04:13:28;;;;;;;4.10;2.70;;;;;;;-3.21;100.00;150556.06;4947540;28;20993;-78
2024/01/08 04:15:55;;;;;;;3.83;2.67;;;;;;;-3.17;100.00;150565.00;4949064;28;20467;-78
2024/01/08 04:18:21;;;;;;;4.83;2.83;;;;;;;-3.21;100.00;150556.06;4945330;28;20505;-78
2024/01/08 04:20:48;;;;;;;2.87;2.50;;;;;;;-3.21;100.00;150554.78;4942594;29;20897;-78
2024/01/08 04:23:16;;;;;;;2.67;1.80;;;;;;;-3.20;100.00;150557.31;4943703;28;21794;-77
2024/01/08 04:25:42;;;;;;;4.47;2.80;;;;;;;-3.21;100.00;150556.06;4933825;29;20486;-78
2024/01/08 04:28:09;;;;;;;3.63;2.50;;;;;;;-3.25;100.00;150545.81;4913398;29;20474;-78
2024/01/08 04:30:36;;;;;;;2.03;1.43;;;;;;;-3.25;100.00;150544.50;4931322;28;20443;-78
2024/01/08 04:33:02;;;;;;;3.53;2.00;;;;;;;-3.25;100.00;150544.50;4944886;28;20509;-78
2024/01/08 04:35:29;;;;;;;3.50;3.00;;;;;;;-3.23;100.00;150549.66;4948473;29;20417;-78
2024/01/08 04:37:55;;;;;;;3.93;2.60;;;;;;;-3.22;100.00;150553.50;4948729;28;20485;-78
2024/01/08 04:40:23;;;;;;;5.00;2.80;;;;;;;-3.23;100.00;150549.66;4932506;29;20443;-78
2024/01/08 04:42:50;;;;;;;4.17;3.77;;;;;;;-3.22;100.00;150552.19;4960767;28;21039;-77
2024/01/08 04:45:17;;;;;;;3.13;2.10;;;;;;;-3.22;100.00;150552.19;4947403;28;20459;-78
2024/01/08 04:47:43;;;;;;;3.90;2.60;;;;;;;-3.23;100.00;150550.91;4944197;28;20441;-78
2024/01/08 04:50:10;;;;;;;3.40;2.47;;;;;;;-3.25;100.00;150545.81;4948044;28;20455;-78
2024/01/08 04:52:36;;;;;;;3.10;2.07;;;;;;;-3.24;100.00;150547.09;4952935;28;20516;-78
2024/01/08 04:55:03;;;;;;;3.53;2.17;;;;;;;-3.27;100.00;150539.41;4947656;28;20454;-78
2024/01/08 04:57:31;;;;;;;3.97;3.40;;;;;;;-3.21;100.00;150554.78;4947310;28;21012;-78
2024/01/08 04:59:58;;;;;;;3.70;2.67;;;;;;;-3.21;100.00;150554.78;4953166;28;20458;-78
2024/01/08 05:02:25;;;;;;;4.63;3.13;;;;;;;-3.22;100.00;150553.50;4955255;28;20462;-78
2024/01/08 05:04:51;;;;;;;4.53;2.40;;;;;;;-3.22;100.00;150553.50;4960123;28;20466;-78
2024/01/08 05:07:18;;;;;;;4.40;3.70;;;;;;;-3.22;100.00;150552.19;4953733;28;20463;-78
2024/01/08 05:09:44;;;;;;;3.90;2.37;;;;;;;-3.25;100.00;150544.50;4933847;29;20470;-77
2024/01/08 05:12:11;;;;;;;3.07;2.47;;;;;;;-3.25;100.00;150544.50;4954969;28;20459;-77
2024/01/08 05:14:39;;;;;;;4.83;2.90;;;;;;;-3.25;100.00;150545.81;4951820;28;20470;-80
2024/01/08 05:17:05;;;;;;;3.70;2.97;;;;;;;-3.25;100.00;150544.50;4910793;29;20493;-80
2024/01/08 05:19:31;;;;;;;5.20;3.47;;;;;;;-3.24;100.00;150547.09;4957557;28;20462;-78
2024/01/08 05:21:58;;;;;;;5.47;3.70;;;;;;;-3.24;100.00;150548.38;4956731;28;20493;-78
2024/01/08 05:24:25;;;;;;;4.10;2.93;;;;;;;-3.24;100.00;150547.09;4934148;29;20473;-77
2024/01/08 05:26:51;;;;;;;4.40;3.30;;;;;;;-3.24;100.00;150548.38;4949048;28;20461;-77
2024/01/08 05:29:18;;;;;;;6.07;4.20;;;;;;;-3.23;100.00;150549.66;4931887;28;20438;-77
2024/01/08 05:31:46;;;;;;;4.00;2.60;;;;;;;-3.27;100.00;150539.41;4944474;28;20455;-78
2024/01/08 05:34:22;;;;;;;2.87;1.80;;;;;;;-3.31;100.00;150529.19;4942835;28;20531;-78
2024/01/08 05:36:48;;;;;;;4.77;3.13;;;;;;;-3.26;100.00;150541.97;4962394;28;21005;-79
2024/01/08 05:39:16;;;;;;;3.83;3.30;;;;;;;-3.27;100.00;150539.41;4936773;29;21091;-79
2024/01/08 05:41:42;;;;;;;3.83;3.20;;;;;;;-3.28;100.00;150538.13;4940994;28;20464;-79
2024/01/08 05:44:09;;;;;;;5.27;3.57;;;;;;;-3.28;100.00;150538.13;4946565;28;20463;-79
2024/01/08 05:46:35;;;;;;;5.23;3.50;;;;;;;-3.25;100.00;150544.50;4939663;29;20547;-79
2024/01/08 05:49:03;;;;;;;3.80;2.70;;;;;;;-3.26;100.00;150543.28;4948761;29;20471;-79
2024/01/08 05:51:30;;;;;;;4.73;3.10;;;;;;;-3.27;100.00;150539.41;4928275;29;20459;-79
2024/01/08 05:53:56;;;;;;;5.07;3.70;;;;;;;-3.32;100.00;150526.63;4947676;29;20474;-79
2024/01/08 05:56:23;;;;;;;3.23;2.23;;;;;;;-3.36;100.00;150516.41;4931453;29;20442;-79
2024/01/08 05:58:49;;;;;;;3.10;2.40;;;;;;;-3.40;100.00;150506.16;4949131;29;20838;-79
2024/01/08 06:01:17;;;;;;;3.90;3.17;;;;;;;-3.38;100.00;150511.25;4942380;29;20465;-80
2024/01/08 06:03:44;;;;;;;7.47;3.97;;;;;;;-3.38;100.00;150512.53;4917443;29;20444;-80
2024/01/08 06:06:15;;;;;;;3.80;3.40;;;;;;;-3.40;100.00;150506.16;4943286;29;20569;-79
2024/01/08 06:08:41;;;;;;;5.00;2.80;;;;;;;-3.38;100.00;150512.53;4947453;28;20467;-80
2024/01/08 06:11:08;;;;;;;5.63;3.63;;;;;;;-3.39;100.00;150509.97;4948915;28;20466;-77
2024/01/08 06:13:35;;;;;;;4.00;3.30;;;;;;;-3.38;100.00;150511.25;4924220;29;20823;-80
2024/01/08 06:16:01;;;;;;;4.50;3.20;;;;;;;-3.42;100.00;150502.34;4950895;28;20990;-79
2024/01/08 06:18:29;;;;;;;4.40;3.17;;;;;;;-3.44;100.00;150497.19;4931239;28;20502;-79
2024/01/08 06:20:56;;;;;;;4.00;3.60;;;;;;;-3.44;100.00;150495.94;4930340;29;20857;-79
2024/01/08 06:23:24;;;;;;;4.50;3.87;;;;;;;-3.43;100.00;150499.75;4947932;28;21271;-79
2024/01/08 06:25:50;;;;;;;5.50;3.23;;;;;;;-3.40;100.00;150506.16;4934735;29;20476;-80
2024/01/08 06:28:17;;;;;;;4.97;3.87;;;;;;;-3.42;100.00;150501.03;4947986;28;20470;-79
2024/01/08 06:30:44;;;;;;;4.57;3.47;;;;;;;-3.44;100.00;150495.94;4932466;28;20447;-79
2024/01/08 06:33:11;;;;;;;4.87;3.47;;;;;;;-3.48;100.00;150485.69;4946762;28;20808;-79
2024/01/08 06:35:39;;;;;;;3.83;3.00;;;;;;;-3.51;100.00;150479.28;4941756;29;20430;-79
2024/01/08 06:38:06;;;;;;;4.83;3.10;;;;;;;-3.52;100.00;150476.72;4948946;29;20491;-79
2024/01/08 06:40:34;;;;;;;4.23;3.47;;;;;;;-3.51;100.00;150478.00;4940449;28;20455;-78
2024/01/08 06:43:01;;;;;;;4.73;3.70;;;;;;;-3.49;100.00;150483.09;4933552;29;20449;-78
2024/01/08 06:45:28;;;;;;;4.57;2.70;;;;;;;-3.44;100.00;150497.19;4951757;29;20450;-79
2024/01/08 06:47:54;;;;;;;3.20;2.90;;;;;;;-3.46;100.00;150492.06;4948911;28;20524;-78
2024/01/08 06:50:21;;;;;;;4.80;2.97;;;;;;;-3.47;100.00;150488.25;4932809;29;20451;-78
2024/01/08 06:52:48;;;;;;;4.00;2.53;;;;;;;-3.46;100.00;150490.78;4939824;29;20486;-79
2024/01/08 06:55:15;;;;;;;3.73;2.63;;;;;;;-3.44;100.00;150495.94;4938672;29;20926;-79
2024/01/08 06:57:43;;;;;;;5.93;3.40;;;;;;;-3.47;100.00;150488.25;4946467;28;20514;-79
2024/01/08 07:00:10;;;;;;;4.87;3.03;;;;;;;-3.46;100.00;150490.78;4930959;29;20846;-79
2024/01/08 07:02:37;;;;;;;6.10;3.27;;;;;;;-3.48;100.00;150485.69;4947335;28;20445;-79
2024/01/08 07:05:05;;;;;;;6.00;3.70;;;;;;;-3.50;100.00;150480.56;4948338;28;20464;-79
2024/01/08 07:07:31;;;;;;;4.43;3.80;;;;;;;-3.48;100.00;150485.69;4949636;28;20494;-79
2024/01/08 07:09:58;;;;;;;5.13;3.30;;;;;;;-3.49;100.00;150484.38;4947722;29;20459;-78
2024/01/08 07:12:24;;;;;;;5.23;3.70;;;;;;;-3.47;100.00;150488.25;4949449;29;20828;-78
2024/01/08 07:14:53;;;;;;;4.93;4.00;;;;;;;-3.47;100.00;150488.25;4949588;28;20470;-79
2024/01/08 07:17:20;;;;;;;4.87;3.70;;;;;;;-3.49;100.00;150483.09;4940748;28;20467;-78
2024/01/08 07:19:47;;;;;;;4.43;3.00;;;;;;;-3.47;100.00;150488.25;4947706;28;20495;-79
2024/01/08 07:22:14;;;;;;;4.47;2.53;;;;;;;-3.53;100.00;150472.91;4930194;28;20441;-79
2024/01/08 07:24:40;;;;;;;4.67;3.60;;;;;;;-3.53;100.00;150472.91;4940485;28;20566;-80
2024/01/08 07:27:07;;;;;;;5.57;3.80;;;;;;;-3.53;100.00;150474.19;4948253;28;20462;-79
2024/01/08 07:29:34;;;;;;;5.13;3.03;;;;;;;-3.52;100.00;150476.72;4931794;29;20510;-79
2024/01/08 07:32:02;;;;;;;3.83;2.73;;;;;;;-3.50;100.00;150480.56;4924187;28;20469;-80
2024/01/08 07:34:29;;;;;;;4.97;3.80;;;;;;;-3.52;100.00;150476.72;4932105;29;20480;-80
2024/01/08 07:36:55;;;;;;;4.00;3.07;;;;;;;-3.56;100.00;150466.50;4948696;29;20454;-80
2024/01/08 07:39:22;;;;;;;5.40;3.30;;;;;;;-3.55;100.00;150469.06;4947372;28;20481;-80
2024/01/08 07:41:49;;;;;;;4.90;3.43;;;;;;;-3.53;100.00;150472.91;4949035;28;21022;-79
2024/01/08 07:44:16;;;;;;;5.17;2.67;;;;;;;-3.53;100.00;150474.19;4946855;28;20471;-80
2024/01/08 07:46:42;;;;;;;6.40;3.93;;;;;;;-3.54;100.00;150470.31;4947892;28;20447;-79
2024/01/08 07:49:11;;;;;;;5.00;3.77;;;;;;;-3.56;100.00;150465.22;4948991;28;20440;-79
2024/01/08 07:51:39;;;;;;;4.70;3.13;;;;;;;-3.59;100.00;150458.81;4948117;28;20522;-80
2024/01/08 07:54:06;;;;;;;4.70;3.67;;;;;;;-3.55;100.00;150467.78;4946769;28;20504;-80
2024/01/08 07:56:32;;;;;;;4.07;2.70;;;;;;;-3.58;100.00;150460.09;4947438;28;20988;-80
2024/01/08 07:58:59;;;;;;;1.70;1.60;;;;;;;-3.60;100.00;150456.25;4945946;29;20498;-80
2024/01/08 08:01:25;;;;;;;4.00;2.87;;;;;;;-3.55;100.00;150469.06;4946042;28;20467;-80
2024/01/08 08:03:53;;;;;;;5.13;3.20;;;;;;;-3.53;100.00;150472.91;4948387;28;20435;-80
2024/01/08 08:06:21;;;;;;;3.93;3.33;;;;;;;-3.55;100.00;150469.06;4945468;28;20460;-80
2024/01/08 08:08:47;;;;;;;5.87;3.40;;;;;;;-3.55;100.00;150469.06;4939002;29;20442;-80
2024/01/08 08:11:14;;;;;;;4.73;3.07;;;;;;;-3.51;100.00;150478.00;4931203;29;20491;-80
2024/01/08 08:13:40;;;;;;;4.00;2.80;;;;;;;-3.50;100.00;150480.56;4926047;28;20863;-80
2024/01/08 08:16:08;;;;;;;3.47;2.53;;;;;;;-3.54;100.00;150470.31;4947923;28;20442;-80
2024/01/08 08:18:35;;;;;;;3.47;2.57;;;;;;;-3.53;100.00;150472.91;4946554;28;20460;-80
2024/01/08 08:21:03;;;;;;;5.30;3.90;;;;;;;-3.51;100.00;150478.00;4944183;29;20549;-80
2024/01/08 08:23:32;;;;;;;4.43;3.53;;;;;;;-3.50;100.00;150480.56;4944882;28;20464;-80
2024/01/08 08:25:59;;;;;;;4.77;3.27;;;;;;;-3.49;100.00;150483.09;4945437;28;20538;-80
2024/01/08 08:28:25;;;;;;;4.53;3.33;;;;;;;-3.51;100.00;150479.28;4944995;28;20434;-80
2024/01/08 08:30:52;;;;;;;5.33;3.30;;;;;;;-3.49;100.00;150483.09;4945929;28;21217;-80
2024/01/08 08:33:19;;;;;;;2.83;2.40;;;;;;;-3.49;100.00;150483.09;4947737;28;20862;-80
2024/01/08 08:35:45;;;;;;;5.80;3.73;;;;;;;-3.50;100.00;150480.56;4945755;28;21046;-80
2024/01/08 08:38:12;;;;;;;4.73;2.80;;;;;;;-3.49;100.00;150483.09;4944483;28;21006;-81
2024/01/08 08:40:41;;;;;;;3.57;2.87;;;;;;;-3.49;100.00;150484.38;4928857;28;20508;-81
2024/01/08 08:43:08;;;;;;;5.40;4.03;;;;;;;-3.46;100.00;150490.78;4946045;28;20534;-79
2024/01/08 08:45:35;;;;;;;4.43;3.40;;;;;;;-3.44;100.00;150495.94;4929808;29;20467;-80
2024/01/08 08:48:01;;;;;;;5.03;2.70;;;;;;;-3.45;100.00;150493.38;4947031;28;20463;-80
2024/01/08 08:50:28;;;;;;;9.97;4.10;;;;;;;-3.46;100.00;150490.78;4946952;28;20430;-79
2024/01/08 08:52:54;;;;;;;3.70;2.83;;;;;;;-3.49;100.00;150483.09;4948120;29;20561;-80
2024/01/08 08:55:21;;;;;;;5.47;2.40;;;;;;;-3.50;100.00;150481.88;4947616;29;20537;-81
2024/01/08 08:57:49;;;;;;;4.83;3.13;;;;;;;-3.48;100.00;150486.97;4936426;29;20487;-79
2024/01/08 09:00:16;;;;;;;3.23;2.13;;;;;;;-3.46;100.00;150490.78;4940731;28;21370;-82
2024/01/08 09:02:43;;;;;;;5.63;2.73;;;;;;;-3.47;100.00;150488.25;4932095;29;20807;-81
2024/01/08 09:05:10;;;;;;;4.33;2.77;;;;;;;-3.47;100.00;150489.53;4915451;29;20520;-80
2024/01/08 09:07:36;;;;;;;3.23;2.73;;;;;;;-3.47;100.00;150488.25;4931164;29;20475;-80
2024/01/08 09:10:03;;;;;;;4.53;3.33;;;;;;;-3.44;100.00;150497.19;4930455;29;20430;-78
2024/01/08 09:12:30;;;;;;;4.80;3.20;;;;;;;-3.44;100.00;150495.94;4946459;29;20465;-81
2024/01/08 09:14:58;;;;;;;4.60;3.77;;;;;;;-3.45;100.00;150494.66;4946050;28;20481;-79
2024/01/08 09:17:24;;;;;;;4.03;2.97;;;;;;;-3.38;100.00;150511.25;4945243;28;20461;-78
2024/01/08 09:19:52;;;;;;;3.17;2.30;;;;;;;-3.41;100.00;150503.56;4947092;29;20940;-80
2024/01/08 09:22:18;;;;;;;4.70;3.33;;;;;;;-3.38;100.00;150511.25;4922707;29;20483;-80
2024/01/08 09:24:45;;;;;;;3.40;2.37;;;;;;;-3.40;100.00;150507.44;4929015;29;20469;-80
2024/01/08 09:27:11;;;;;;;5.60;2.70;;;;;;;-3.37;100.00;150513.84;4938810;28;20452;-80
2024/01/08 09:29:38;;;;;;;4.37;3.20;;;;;;;-3.36;100.00;150516.41;4944605;28;20962;-80
2024/01/08 09:32:10;;;;;;;6.87;4.23;;;;;;;-3.36;100.00;150516.41;4943809;28;20459;-80
2024/01/08 09:34:47;;;;;;;5.83;3.57;;;;;;;-3.36;100.00;150516.41;4937877;28;20471;-80
2024/01/08 09:37:16;;;;;;;4.33;3.90;;;;;;;-3.35;100.00;150518.94;4947287;28;20443;-80
2024/01/08 09:39:44;;;;;;;3.97;2.53;;;;;;;-3.32;100.00;150526.63;4923422;29;21251;-80
2024/01/08 09:42:10;;;;;;;3.93;3.10;;;;;;;-3.31;100.00;150529.19;4948717;28;21161;-80
2024/01/08 09:44:38;;;;;;;6.50;3.60;;;;;;;-3.33;100.00;150525.31;4949323;28;20458;-80
2024/01/08 09:47:06;;;;;;;5.47;3.33;;;;;;;-3.29;100.00;150534.31;4948767;28;20423;-80
2024/01/08 09:49:34;;;;;;;5.30;3.40;;;;;;;-3.29;100.00;150534.31;4949574;28;20478;-81
2024/01/08 09:52:02;;;;;;;5.77;3.60;;;;;;;-3.30;100.00;150531.72;4933233;29;20793;-81
2024/01/08 09:54:30;;;;;;;3.87;2.97;;;;;;;-3.32;100.00;150527.91;4933622;28;20509;-80
2024/01/08 09:56:58;;;;;;;3.77;2.50;;;;;;;-3.35;100.00;150518.94;4925698;29;20471;-80
2024/01/08 09:59:25;;;;;;;5.13;3.90;;;;;;;-3.29;100.00;150535.59;4948627;28;20487;-80
2024/01/08 10:01:54;;;;;;;4.27;3.07;;;;;;;-3.25;100.00;150544.50;4947270;28;20966;-80
2024/01/08 10:04:24;;;;;;;4.40;2.90;;;;;;;-3.24;100.00;150548.38;4948478;28;20569;-80
2024/01/08 10:07:03;;;;;;;2.67;2.03;;;;;;;-3.23;100.00;150550.91;4949981;28;20523;-79
2024/01/08 10:09:29;;;;;;;3.20;2.60;;;;;;;-3.31;100.00;150530.44;4929639;29;20466;-80
2024/01/08 10:11:56;;;;;;;4.20;3.10;;;;;;;-3.29;100.00;150534.31;4942366;28;20459;-80
2024/01/08 10:14:25;;;;;;;2.50;2.30;;;;;;;-3.33;100.00;150525.31;4941676;28;20462;-80
2024/01/08 10:16:52;;;;;;;3.20;2.23;;;;;;;-3.34;100.00;150521.50;4949221;28;20458;-80
2024/01/08 10:19:19;;;;;;;4.10;3.00;;;;;;;-3.37;100.00;150513.84;4923003;29;20461;-80
2024/01/08 10:21:55;;;;;;;5.00;2.53;;;;;;;-3.35;100.00;150520.22;4951242;28;20880;-80
2024/01/08 10:24:25;;;;;;;4.40;2.60;;;;;;;-3.38;100.00;150511.25;4953326;28;20554;-80
2024/01/08 10:26:52;;;;;;;3.77;2.97;;;;;;;-3.33;100.00;150524.03;4917813;29;21094;-80
2024/01/08 10:29:19;;;;;;;4.00;3.30;;;;;;;-3.32;100.00;150526.63;4949541;28;20487;-79
2024/01/08 10:31:46;;;;;;;3.00;2.70;;;;;;;-3.34;100.00;150522.81;4922798;29;20445;-79
2024/01/08 10:34:12;;;;;;;2.77;2.50;;;;;;;-3.35;100.00;150518.94;4948163;28;20458;-80
2024/01/08 10:36:41;;;;;;;3.37;2.50;;;;;;;-3.34;100.00;150521.50;4948594;28;20472;-79
2024/01/08 10:39:10;;;;;;;5.00;3.80;;;;;;;-3.29;100.00;150535.59;4945593;28;20576;-79
2024/01/08 10:41:36;;;;;;;3.83;3.43;;;;;;;-3.33;100.00;150525.31;4950044;28;20496;-80
2024/01/08 10:44:04;;;;;;;3.00;2.10;;;;;;;-3.31;100.00;150529.19;4940119;28;21218;-80
2024/01/08 10:46:36;;;;;;;4.93;3.10;;;;;;;-3.29;100.00;150534.31;4938817;28;20877;-79
2024/01/08 10:49:02;;;;;;;4.63;3.30;;;;;;;-3.26;100.00;150543.28;4949793;28;20568;-79
2024/01/08 10:51:29;;;;;;;4.17;3.43;;;;;;;-3.22;100.00;150552.19;4947779;28;20456;-80
2024/01/08 10:53:57;;;;;;;3.37;1.93;;;;;;;-3.21;100.00;150554.78;4948279;28;20436;-85
2024/01/08 10:56:31;;;;;;;3.57;2.80;;;;;;;-3.24;100.00;150547.09;4940765;28;20494;-85
2024/01/08 10:59:01;;;;;;;5.30;3.20;;;;;;;-3.24;100.00;150547.09;4949438;28;20437;-85
2024/01/08 11:01:31;;;;;;;3.90;2.43;;;;;;;-3.21;100.00;150554.78;4926898;29;20473;-85
2024/01/08 11:06:43;;;;;;;7.20;3.80;;;;;;;-3.18;100.00;150563.69;4948810;28;20466;-84
2024/01/08 11:09:24;;;;;;;4.63;3.30;;;;;;;-3.15;100.00;150570.13;4940050;29;20842;-84
2024/01/08 11:11:52;;;;;;;2.80;2.13;;;;;;;-3.15;100.00;150570.13;4947145;28;20462;-84
2024/01/08 11:14:19;;;;;;;2.57;2.07;;;;;;;-3.15;100.00;150570.13;4932829;28;20465;-84
2024/01/08 11:16:47;;;;;;;6.57;3.90;;;;;;;-3.18;100.00;150563.69;4933921;29;20448;-84
2024/01/08 11:19:27;;;;;;;7.03;3.37;;;;;;;-3.16;100.00;150567.56;4948416;28;20490;-84